sensor_id;sensor_type;location;lat;lon;timestamp;pressure;altitude;pressure_sealevel;temperature;humidity
26697;BME280;14312;52.614;13.496;2024-01-25T12:03:48;101562.56;;;8.27;83.92
26697;BME280;14312;52.614;13.496;2024-01-25T12:06:34;101566.06;;;8.74;82.32
26697;BME280;14312;52.614;13.496;2024-01-25T12:09:20;101560.72;;;9.27;81.36
26697;BME280;14312;52.614;13.496;2024-01-25T12:12:07;101557.69;;;9.74;79.85
26697;BME280;14312;52.614;13.496;2024-01-25T12:15:03;101559.94;;;10.22;76.94
26697;BME280;14312;52.614;13.496;2024-01-25T12:17:49;101552.41;;;10.69;78.06
26697;BME280;14312;52.614;13.496;2024-01-25T12:20:35;101561.78;;;11.21;77.12
26697;BME280;14312;52.614;13.496;2024-01-25T12:23:22;101551.59;;;11.66;75.79
26697;BME280;14312;52.614;13.496;2024-01-25T12:26:09;101551.13;;;12.05;74.81
26697;BME280;14312;52.614;13.496;2024-01-25T12:28:56;101567.38;;;12.45;73.85
26697;BME280;14312;52.614;13.496;2024-01-25T12:31:46;101553.63;;;12.83;72.87
26697;BME280;14312;52.614;13.496;2024-01-25T12:34:32;101538.38;;;13.19;71.70
26697;BME280;14312;52.614;13.496;2024-01-25T12:37:17;101551.63;;;13.49;71.17
26697;BME280;14312;52.614;13.496;2024-01-25T12:40:04;101552.47;;;13.66;69.04
26697;BME280;14312;52.614;13.496;2024-01-25T12:42:50;101537.91;;;13.73;69.13
26697;BME280;14312;52.614;13.496;2024-01-25T12:45:36;101540.66;;;13.79;69.08
26697;BME280;14312;52.614;13.496;2024-01-25T12:48:22;101555.59;;;13.75;67.47
26697;BME280;14312;52.614;13.496;2024-01-25T12:51:08;101547.25;;;13.59;66.02
26697;BME280;14312;52.614;13.496;2024-01-25T12:53:54;101546.41;;;13.42;66.86
26697;BME280;14312;52.614;13.496;2024-01-25T12:56:40;101535.91;;;13.29;67.29
26697;BME280;14312;52.614;13.496;2024-01-25T12:59:26;101540.94;;;13.25;67.86
26697;BME280;14312;52.614;13.496;2024-01-25T13:02:12;101529.25;;;13.43;68.95
26697;BME280;14312;52.614;13.496;2024-01-25T13:04:58;101530.25;;;13.65;67.96
26697;BME280;14312;52.614;13.496;2024-01-25T13:07:44;101556.50;;;13.92;67.87
26697;BME280;14312;52.614;13.496;2024-01-25T13:10:30;101545.19;;;14.18;67.31
26697;BME280;14312;52.614;13.496;2024-01-25T13:13:16;101529.13;;;14.52;68.09
26697;BME280;14312;52.614;13.496;2024-01-25T13:16:03;101541.47;;;14.86;67.05
26697;BME280;14312;52.614;13.496;2024-01-25T13:18:49;101534.44;;;15.18;65.86
26697;BME280;14312;52.614;13.496;2024-01-25T13:21:35;101529.91;;;15.41;64.46
26697;BME280;14312;52.614;13.496;2024-01-25T13:24:21;101515.97;;;15.65;64.67
26697;BME280;14312;52.614;13.496;2024-01-25T13:27:07;101530.44;;;15.86;63.57
26697;BME280;14312;52.614;13.496;2024-01-25T13:29:53;101506.84;;;15.93;61.77
26697;BME280;14312;52.614;13.496;2024-01-25T13:32:39;101516.75;;;15.88;61.47
26697;BME280;14312;52.614;13.496;2024-01-25T13:35:25;101521.72;;;15.74;60.91
26697;BME280;14312;52.614;13.496;2024-01-25T13:38:11;101517.63;;;15.50;60.26
26697;BME280;14312;52.614;13.496;2024-01-25T13:41:00;101535.72;;;15.16;60.05
26697;BME280;14312;52.614;13.496;2024-01-25T13:43:46;101526.53;;;14.73;60.20
26697;BME280;14312;52.614;13.496;2024-01-25T13:46:32;101529.34;;;14.33;60.50
26697;BME280;14312;52.614;13.496;2024-01-25T13:49:18;101528.72;;;13.98;61.39
26697;BME280;14312;52.614;13.496;2024-01-25T13:52:04;101542.00;;;13.64;61.68
26697;BME280;14312;52.614;13.496;2024-01-25T13:54:51;101541.94;;;13.36;62.39
26697;BME280;14312;52.614;13.496;2024-01-25T13:57:37;101555.22;;;13.08;63.07
26697;BME280;14312;52.614;13.496;2024-01-25T14:00:23;101551.97;;;12.82;63.64
26697;BME280;14312;52.614;13.496;2024-01-25T14:03:09;101571.25;;;12.61;63.89
26697;BME280;14312;52.614;13.496;2024-01-25T14:05:55;101576.69;;;12.43;64.25
26697;BME280;14312;52.614;13.496;2024-01-25T14:08:42;101581.66;;;12.28;64.98
26697;BME280;14312;52.614;13.496;2024-01-25T14:11:28;101580.78;;;12.15;65.17
26697;BME280;14312;52.614;13.496;2024-01-25T14:14:14;101599.22;;;12.05;65.48
26697;BME280;14312;52.614;13.496;2024-01-25T14:17:00;101584.09;;;11.99;65.30
26697;BME280;14312;52.614;13.496;2024-01-25T14:19:48;101583.38;;;11.92;65.76
26697;BME280;14312;52.614;13.496;2024-01-25T14:22:34;101589.59;;;11.86;65.86
26697;BME280;14312;52.614;13.496;2024-01-25T14:25:20;101590.03;;;11.83;66.02
26697;BME280;14312;52.614;13.496;2024-01-25T14:28:06;101590.47;;;11.80;66.03
26697;BME280;14312;52.614;13.496;2024-01-25T14:30:52;101587.25;;;11.78;65.73
26697;BME280;14312;52.614;13.496;2024-01-25T14:33:38;101590.94;;;11.77;66.11
26697;BME280;14312;52.614;13.496;2024-01-25T14:36:24;101598.97;;;11.77;66.48
26697;BME280;14312;52.614;13.496;2024-01-25T14:39:10;101599.56;;;11.79;66.51
26697;BME280;14312;52.614;13.496;2024-01-25T14:41:56;101592.72;;;11.83;65.98
26697;BME280;14312;52.614;13.496;2024-01-25T14:44:43;101601.53;;;11.84;65.90
26697;BME280;14312;52.614;13.496;2024-01-25T14:47:29;101598.06;;;11.83;65.67
26697;BME280;14312;52.614;13.496;2024-01-25T14:50:15;101610.25;;;11.79;65.56
26697;BME280;14312;52.614;13.496;2024-01-25T14:53:01;101605.53;;;11.74;65.55
26697;BME280;14312;52.614;13.496;2024-01-25T14:55:47;101608.25;;;11.68;65.89
26697;BME280;14312;52.614;13.496;2024-01-25T14:58:33;101601.16;;;11.62;65.67
26697;BME280;14312;52.614;13.496;2024-01-25T15:01:19;101594.47;;;11.53;65.59
26697;BME280;14312;52.614;13.496;2024-01-25T15:04:06;101597.44;;;11.45;65.59
26697;BME280;14312;52.614;13.496;2024-01-25T15:06:52;101600.41;;;11.36;65.98
26697;BME280;14312;52.614;13.496;2024-01-25T15:09:38;101611.94;;;11.30;65.96
26697;BME280;14312;52.614;13.496;2024-01-25T15:12:24;101613.84;;;11.23;66.07
26697;BME280;14312;52.614;13.496;2024-01-25T15:15:10;101619.88;;;11.19;66.28
26697;BME280;14312;52.614;13.496;2024-01-25T15:17:57;101630.59;;;11.12;65.90
26697;BME280;14312;52.614;13.496;2024-01-25T15:20:43;101623.25;;;11.08;66.10
26697;BME280;14312;52.614;13.496;2024-01-25T15:23:29;101638.88;;;11.04;66.06
26697;BME280;14312;52.614;13.496;2024-01-25T15:26:15;101646.50;;;11.01;66.57
26697;BME280;14312;52.614;13.496;2024-01-25T15:29:01;101640.34;;;11.00;66.82
26697;BME280;14312;52.614;13.496;2024-01-25T15:31:47;101657.38;;;10.99;66.50
26697;BME280;14312;52.614;13.496;2024-01-25T15:34:33;101655.75;;;10.98;66.91
26697;BME280;14312;52.614;13.496;2024-01-25T15:37:19;101660.25;;;10.97;66.78
26697;BME280;14312;52.614;13.496;2024-01-25T15:40:05;101661.09;;;10.98;67.07
26697;BME280;14312;52.614;13.496;2024-01-25T15:42:56;101668.06;;;10.99;66.89
26697;BME280;14312;52.614;13.496;2024-01-25T15:45:42;101670.09;;;10.97;66.82
26697;BME280;14312;52.614;13.496;2024-01-25T15:48:28;101673.38;;;10.99;66.92
26697;BME280;14312;52.614;13.496;2024-01-25T15:51:14;101669.91;;;10.98;66.94
26697;BME280;14312;52.614;13.496;2024-01-25T15:54:00;101682.41;;;10.98;67.07
26697;BME280;14312;52.614;13.496;2024-01-25T15:56:46;101693.69;;;11.00;67.16
26697;BME280;14312;52.614;13.496;2024-01-25T15:59:33;101700.06;;;10.99;67.32
26697;BME280;14312;52.614;13.496;2024-01-25T16:02:18;101701.69;;;11.00;67.33
26697;BME280;14312;52.614;13.496;2024-01-25T16:05:04;101707.44;;;10.97;67.19
26697;BME280;14312;52.614;13.496;2024-01-25T16:07:50;101717.91;;;10.98;67.34
26697;BME280;14312;52.614;13.496;2024-01-25T16:10:37;101715.44;;;10.97;67.21
26697;BME280;14312;52.614;13.496;2024-01-25T16:13:22;101721.38;;;10.99;67.53
26697;BME280;14312;52.614;13.496;2024-01-25T16:16:08;101725.09;;;10.98;67.66
26697;BME280;14312;52.614;13.496;2024-01-25T16:18:54;101719.75;;;10.98;67.81
26697;BME280;14312;52.614;13.496;2024-01-25T16:21:40;101732.06;;;10.99;67.63
26697;BME280;14312;52.614;13.496;2024-01-25T16:24:26;101730.41;;;10.98;67.49
26697;BME280;14312;52.614;13.496;2024-01-25T16:27:12;101734.31;;;10.95;67.38
26697;BME280;14312;52.614;13.496;2024-01-25T16:29:58;101736.16;;;10.95;67.54
26697;BME280;14312;52.614;13.496;2024-01-25T16:32:44;101736.16;;;10.95;67.65
26697;BME280;14312;52.614;13.496;2024-01-25T16:35:30;101733.50;;;10.95;67.85
26697;BME280;14312;52.614;13.496;2024-01-25T16:38:16;101726.56;;;10.94;67.80
26697;BME280;14312;52.614;13.496;2024-01-25T16:41:02;101722.25;;;10.93;67.77
26697;BME280;14312;52.614;13.496;2024-01-25T16:43:48;101728.63;;;10.92;67.58
26697;BME280;14312;52.614;13.496;2024-01-25T16:46:34;101735.78;;;10.91;67.74
26697;BME280;14312;52.614;13.496;2024-01-25T16:49:21;101734.97;;;10.91;67.84
26697;BME280;14312;52.614;13.496;2024-01-25T16:52:07;101744.81;;;10.90;67.63
26697;BME280;14312;52.614;13.496;2024-01-25T16:55:10;101738.66;;;10.90;67.71
26697;BME280;14312;52.614;13.496;2024-01-25T16:57:56;101739.69;;;10.89;67.80
26697;BME280;14312;52.614;13.496;2024-01-25T17:00:42;101743.38;;;10.88;67.83
26697;BME280;14312;52.614;13.496;2024-01-25T17:03:28;101747.13;;;10.87;68.07
26697;BME280;14312;52.614;13.496;2024-01-25T17:06:14;101749.78;;;10.87;68.20
26697;BME280;14312;52.614;13.496;2024-01-25T17:09:01;101754.28;;;10.86;67.85
26697;BME280;14312;52.614;13.496;2024-01-25T17:11:46;101751.63;;;10.86;67.86
26697;BME280;14312;52.614;13.496;2024-01-25T17:14:32;101767.00;;;10.84;68.18
26697;BME280;14312;52.614;13.496;2024-01-25T17:17:18;101765.38;;;10.83;68.17
26697;BME280;14312;52.614;13.496;2024-01-25T17:20:05;101765.38;;;10.83;67.96
26697;BME280;14312;52.614;13.496;2024-01-25T17:22:51;101769.06;;;10.82;68.05
26697;BME280;14312;52.614;13.496;2024-01-25T17:25:40;101771.94;;;10.81;68.05
26697;BME280;14312;52.614;13.496;2024-01-25T17:28:26;101775.66;;;10.80;68.15
26697;BME280;14312;52.614;13.496;2024-01-25T17:31:12;101781.78;;;10.80;68.10
26697;BME280;14312;52.614;13.496;2024-01-25T17:33:58;101774.84;;;10.79;68.42
26697;BME280;14312;52.614;13.496;2024-01-25T17:36:44;101769.09;;;10.76;68.30
26697;BME280;14312;52.614;13.496;2024-01-25T17:39:30;101777.72;;;10.78;68.33
26697;BME280;14312;52.614;13.496;2024-01-25T17:42:16;101773.22;;;10.78;68.34
26697;BME280;14312;52.614;13.496;2024-01-25T17:45:03;101776.91;;;10.77;68.41
26697;BME280;14312;52.614;13.496;2024-01-25T17:47:49;101778.13;;;10.75;68.30
26697;BME280;14312;52.614;13.496;2024-01-25T17:50:36;101770.13;;;10.75;68.35
26697;BME280;14312;52.614;13.496;2024-01-25T17:53:22;101774.88;;;10.73;68.25
26697;BME280;14312;52.614;13.496;2024-01-25T17:56:08;101780.63;;;10.70;68.12
26697;BME280;14312;52.614;13.496;2024-01-25T17:58:54;101776.53;;;10.67;68.38
26697;BME280;14312;52.614;13.496;2024-01-25T18:01:47;101781.28;;;10.65;68.40
26697;BME280;14312;52.614;13.496;2024-01-25T18:04:33;101783.13;;;10.65;68.43
26697;BME280;14312;52.614;13.496;2024-01-25T18:07:20;101784.34;;;10.62;68.31
26697;BME280;14312;52.614;13.496;2024-01-25T18:10:06;101786.19;;;10.62;68.36
26697;BME280;14312;52.614;13.496;2024-01-25T18:12:52;101782.72;;;10.61;68.49
26697;BME280;14312;52.614;13.496;2024-01-25T18:15:38;101790.09;;;10.59;68.30
26697;BME280;14312;52.614;13.496;2024-01-25T18:18:24;101787.66;;;10.57;68.40
26697;BME280;14312;52.614;13.496;2024-01-25T18:21:10;101789.72;;;10.55;68.37
26697;BME280;14312;52.614;13.496;2024-01-25T18:23:56;101791.75;;;10.53;68.51
26697;BME280;14312;52.614;13.496;2024-01-25T18:26:42;101796.25;;;10.53;68.55
26697;BME280;14312;52.614;13.496;2024-01-25T18:29:28;101808.19;;;10.50;68.78
26697;BME280;14312;52.614;13.496;2024-01-25T18:32:15;101806.53;;;10.49;68.79
26697;BME280;14312;52.614;13.496;2024-01-25T18:35:01;101804.91;;;10.48;68.60
26697;BME280;14312;52.614;13.496;2024-01-25T18:37:47;101804.09;;;10.48;68.69
26697;BME280;14312;52.614;13.496;2024-01-25T18:40:34;101806.94;;;10.46;68.57
26697;BME280;14312;52.614;13.496;2024-01-25T18:43:19;101805.31;;;10.45;68.62
26697;BME280;14312;52.614;13.496;2024-01-25T18:46:06;101806.94;;;10.46;69.01
26697;BME280;14312;52.614;13.496;2024-01-25T18:48:52;101795.69;;;10.44;68.60
26697;BME280;14312;52.614;13.496;2024-01-25T18:51:38;101796.72;;;10.43;68.94
26697;BME280;14312;52.614;13.496;2024-01-25T18:54:24;101805.75;;;10.42;68.96
26697;BME280;14312;52.614;13.496;2024-01-25T18:57:11;101811.06;;;10.42;69.00
26697;BME280;14312;52.614;13.496;2024-01-25T18:59:58;101817.22;;;10.43;68.96
26697;BME280;14312;52.614;13.496;2024-01-25T19:02:44;101815.78;;;10.40;69.05
26697;BME280;14312;52.614;13.496;2024-01-25T19:05:30;101813.13;;;10.40;69.00
26697;BME280;14312;52.614;13.496;2024-01-25T19:08:16;101818.88;;;10.37;68.86
26697;BME280;14312;52.614;13.496;2024-01-25T19:11:03;101815.59;;;10.35;68.81
26697;BME280;14312;52.614;13.496;2024-01-25T19:13:48;101820.94;;;10.35;69.02
26697;BME280;14312;52.614;13.496;2024-01-25T19:16:34;101825.66;;;10.33;68.68
26697;BME280;14312;52.614;13.496;2024-01-25T19:19:20;101816.81;;;10.33;68.95
26697;BME280;14312;52.614;13.496;2024-01-25T19:22:06;101816.00;;;10.32;69.21
26697;BME280;14312;52.614;13.496;2024-01-25T19:24:53;101814.38;;;10.31;69.16
26697;BME280;14312;52.614;13.496;2024-01-25T19:27:39;101800.47;;;10.29;69.15
26697;BME280;14312;52.614;13.496;2024-01-25T19:30:25;101802.50;;;10.27;68.97
26697;BME280;14312;52.614;13.496;2024-01-25T19:33:11;101801.69;;;10.27;69.26
26697;BME280;14312;52.614;13.496;2024-01-25T19:35:57;101802.72;;;10.26;69.25
26697;BME280;14312;52.614;13.496;2024-01-25T19:38:43;101802.09;;;10.24;69.06
26697;BME280;14312;52.614;13.496;2024-01-25T19:41:29;101808.66;;;10.21;68.99
26697;BME280;14312;52.614;13.496;2024-01-25T19:44:15;101808.06;;;10.19;69.35
26697;BME280;14312;52.614;13.496;2024-01-25T19:47:01;101810.91;;;10.17;69.39
26697;BME280;14312;52.614;13.496;2024-01-25T19:49:47;101816.41;;;10.16;69.50
26697;BME280;14312;52.614;13.496;2024-01-25T19:52:35;101825.47;;;10.15;69.42
26697;BME280;14312;52.614;13.496;2024-01-25T19:55:22;101811.53;;;10.13;69.39
26697;BME280;14312;52.614;13.496;2024-01-25T19:58:08;101826.88;;;10.11;69.29
26697;BME280;14312;52.614;13.496;2024-01-25T20:00:55;101820.94;;;10.09;69.38
26697;BME280;14312;52.614;13.496;2024-01-25T20:03:42;101809.06;;;10.05;69.28
26697;BME280;14312;52.614;13.496;2024-01-25T20:06:28;101816.44;;;10.03;69.36
26697;BME280;14312;52.614;13.496;2024-01-25T20:09:16;101806.22;;;10.00;69.24
26697;BME280;14312;52.614;13.496;2024-01-25T20:12:02;101806.63;;;9.97;69.40
26697;BME280;14312;52.614;13.496;2024-01-25T20:14:48;101805.41;;;9.93;69.19
26697;BME280;14312;52.614;13.496;2024-01-25T20:17:34;101809.50;;;9.89;69.34
26697;BME280;14312;52.614;13.496;2024-01-25T20:20:23;101811.97;;;9.83;69.36
26697;BME280;14312;52.614;13.496;2024-01-25T20:23:09;101802.13;;;9.77;69.45
26697;BME280;14312;52.614;13.496;2024-01-25T20:25:55;101805.44;;;9.73;69.69
26697;BME280;14312;52.614;13.496;2024-01-25T20:28:41;101808.69;;;9.68;69.65
26697;BME280;14312;52.614;13.496;2024-01-25T20:31:27;101813.63;;;9.65;69.45
26697;BME280;14312;52.614;13.496;2024-01-25T20:34:13;101804.59;;;9.59;69.64
26697;BME280;14312;52.614;13.496;2024-01-25T20:36:59;101810.72;;;9.53;69.97
26697;BME280;14312;52.614;13.496;2024-01-25T20:39:45;101808.69;;;9.49;69.68
26697;BME280;14312;52.614;13.496;2024-01-25T20:42:31;101807.66;;;9.43;69.85
26697;BME280;14312;52.614;13.496;2024-01-25T20:45:17;101791.47;;;9.38;69.70
26697;BME280;14312;52.614;13.496;2024-01-25T20:48:07;101796.59;;;9.33;69.89
26697;BME280;14312;52.614;13.496;2024-01-25T20:50:53;101800.06;;;9.27;69.88
26697;BME280;14312;52.614;13.496;2024-01-25T20:53:39;101796.38;;;9.21;70.04
26697;BME280;14312;52.614;13.496;2024-01-25T20:56:25;101796.19;;;9.16;70.10
26697;BME280;14312;52.614;13.496;2024-01-25T20:59:11;101792.47;;;9.11;70.02
26697;BME280;14312;52.614;13.496;2024-01-25T21:01:57;101791.22;;;9.07;70.11
26697;BME280;14312;52.614;13.496;2024-01-25T21:04:44;101799.00;;;9.01;70.50
26697;BME280;14312;52.614;13.496;2024-01-25T21:07:30;101793.44;;;8.96;70.34
26697;BME280;14312;52.614;13.496;2024-01-25T21:10:16;101800.19;;;8.92;70.66
26697;BME280;14312;52.614;13.496;2024-01-25T21:13:04;101806.91;;;8.88;70.51
26697;BME280;14312;52.614;13.496;2024-01-25T21:15:50;101808.34;;;8.84;70.57
26697;BME280;14312;52.614;13.496;2024-01-25T21:18:36;101817.75;;;8.80;70.87
26697;BME280;14312;52.614;13.496;2024-01-25T21:21:22;101819.16;;;8.76;70.93
26697;BME280;14312;52.614;13.496;2024-01-25T21:24:08;101814.25;;;8.73;70.73
26697;BME280;14312;52.614;13.496;2024-01-25T21:26:54;101812.16;;;8.69;70.87
26697;BME280;14312;52.614;13.496;2024-01-25T21:29:40;101817.06;;;8.65;70.95
26697;BME280;14312;52.614;13.496;2024-01-25T21:32:26;101810.50;;;8.61;70.81
26697;BME280;14312;52.614;13.496;2024-01-25T21:35:12;101821.53;;;8.58;71.15
26697;BME280;14312;52.614;13.496;2024-01-25T21:37:58;101816.59;;;8.55;71.04
26697;BME280;14312;52.614;13.496;2024-01-25T21:40:44;101821.69;;;8.50;71.05
26697;BME280;14312;52.614;13.496;2024-01-25T21:43:30;101817.78;;;8.46;71.27
26697;BME280;14312;52.614;13.496;2024-01-25T21:46:16;101823.50;;;8.43;71.41
26697;BME280;14312;52.614;13.496;2024-01-25T21:49:02;101823.06;;;8.39;71.48
26697;BME280;14312;52.614;13.496;2024-01-25T21:51:48;101821.81;;;8.35;71.30
26697;BME280;14312;52.614;13.496;2024-01-25T21:54:34;101823.84;;;8.33;71.49
26697;BME280;14312;52.614;13.496;2024-01-25T21:57:20;101821.56;;;8.30;71.35
26697;BME280;14312;52.614;13.496;2024-01-25T22:00:06;101835.22;;;8.27;71.50
26697;BME280;14312;52.614;13.496;2024-01-25T22:02:52;101821.53;;;8.23;71.41
26697;BME280;14312;52.614;13.496;2024-01-25T22:05:39;101830.69;;;8.21;71.49
26697;BME280;14312;52.614;13.496;2024-01-25T22:08:24;101823.09;;;8.18;71.57
26697;BME280;14312;52.614;13.496;2024-01-25T22:11:10;101820.03;;;8.14;71.94
26697;BME280;14312;52.614;13.496;2024-01-25T22:13:57;101822.88;;;8.13;71.81
